Weather at Ottawa Macdonald-Cartier International Airport

Public forecast

Using degrees Celsius for public forecast. Weather courtesy of forecast.io.

Current aviation weather report (METAR) for Ottawa Macdonald-Cartier International Airport

Retrieved 2021/01/25 22:00 UTC (60 minutes ago):

CYOW 252200Z 05005KT 10SM -SN OVC024 M08/M10 A3008 RMK SC8 SLP196

Aviation forecast (TAF) for Ottawa Macdonald-Cartier International Airport

Retrieved 2021/01/25 21:00 UTC (2 hours ago):

TAF CYOW 252038Z 2521/2618 06005KT P6SM OVC025 TEMPO 2521/2602 P6SM -SN OVC015 FM260200 06006KT P6SM SCT007 OVC015 TEMPO 2602/2610 5SM -SN BKN007 OVC015 PROB30 2602/2610 21/2SM -FZDZ -SG BR OVC006 FM261000 06010KT P6SM BKN008 OVC015 FM261400 06010KT P6SM BKN015 BKN200 FM261600 06012KT P6SM SCT020 BKN120 RMK NXT FCST BY 260000Z